sensor_id;sensor_type;location;lat;lon;timestamp;P1;durP1;ratioP1;P2;durP2;ratioP2
61204;SDS011;47068;55.780;37.520;2023-01-19T00:00:59;10.93;;;4.70;;
61204;SDS011;47068;55.780;37.520;2023-01-19T00:03:25;15.97;;;3.43;;
61204;SDS011;47068;55.780;37.520;2023-01-19T00:05:50;15.67;;;3.20;;
61204;SDS011;47068;55.780;37.520;2023-01-19T00:08:16;8.88;;;2.90;;
61204;SDS011;47068;55.780;37.520;2023-01-19T00:10:43;15.38;;;5.38;;
61204;SDS011;47068;55.780;37.520;2023-01-19T00:13:09;11.90;;;3.93;;
61204;SDS011;47068;55.780;37.520;2023-01-19T00:15:34;9.40;;;3.83;;
61204;SDS011;47068;55.780;37.520;2023-01-19T00:18:00;9.30;;;2.75;;
61204;SDS011;47068;55.780;37.520;2023-01-19T00:20:25;6.17;;;2.50;;
61204;SDS011;47068;55.780;37.520;2023-01-19T00:22:50;12.77;;;4.53;;
61204;SDS011;47068;55.780;37.520;2023-01-19T00:25:16;3.97;;;2.80;;
61204;SDS011;47068;55.780;37.520;2023-01-19T00:27:41;11.47;;;3.03;;
61204;SDS011;47068;55.780;37.520;2023-01-19T00:30:13;14.53;;;5.40;;
61204;SDS011;47068;55.780;37.520;2023-01-19T00:32:39;8.52;;;3.58;;
61204;SDS011;47068;55.780;37.520;2023-01-19T00:35:04;8.23;;;2.93;;
61204;SDS011;47068;55.780;37.520;2023-01-19T00:37:29;6.97;;;3.50;;
61204;SDS011;47068;55.780;37.520;2023-01-19T00:39:55;3.63;;;1.90;;
61204;SDS011;47068;55.780;37.520;2023-01-19T00:42:20;12.90;;;3.70;;
61204;SDS011;47068;55.780;37.520;2023-01-19T00:45:04;9.87;;;2.73;;
61204;SDS011;47068;55.780;37.520;2023-01-19T00:49:56;7.80;;;2.77;;
61204;SDS011;47068;55.780;37.520;2023-01-19T00:52:21;8.60;;;3.00;;
61204;SDS011;47068;55.780;37.520;2023-01-19T00:54:46;18.57;;;5.43;;
61204;SDS011;47068;55.780;37.520;2023-01-19T00:57:12;16.27;;;5.03;;
61204;SDS011;47068;55.780;37.520;2023-01-19T00:59:37;9.53;;;4.03;;
61204;SDS011;47068;55.780;37.520;2023-01-19T01:02:02;6.13;;;2.37;;
61204;SDS011;47068;55.780;37.520;2023-01-19T01:04:28;6.00;;;3.27;;
61204;SDS011;47068;55.780;37.520;2023-01-19T01:06:53;14.60;;;5.38;;
61204;SDS011;47068;55.780;37.520;2023-01-19T01:09:19;10.83;;;2.50;;
61204;SDS011;47068;55.780;37.520;2023-01-19T01:11:44;11.23;;;3.20;;
61204;SDS011;47068;55.780;37.520;2023-01-19T01:14:10;4.10;;;1.93;;
61204;SDS011;47068;55.780;37.520;2023-01-19T01:16:35;12.35;;;3.63;;
61204;SDS011;47068;55.780;37.520;2023-01-19T01:19:01;6.50;;;2.63;;
61204;SDS011;47068;55.780;37.520;2023-01-19T01:21:26;11.30;;;4.07;;
61204;SDS011;47068;55.780;37.520;2023-01-19T01:23:51;12.60;;;4.07;;
61204;SDS011;47068;55.780;37.520;2023-01-19T01:26:17;5.53;;;3.07;;
61204;SDS011;47068;55.780;37.520;2023-01-19T01:28:42;10.90;;;4.00;;
61204;SDS011;47068;55.780;37.520;2023-01-19T01:31:07;11.57;;;4.07;;
61204;SDS011;47068;55.780;37.520;2023-01-19T01:33:32;7.00;;;3.60;;
61204;SDS011;47068;55.780;37.520;2023-01-19T01:35:58;15.20;;;4.50;;
61204;SDS011;47068;55.780;37.520;2023-01-19T01:38:23;14.10;;;3.63;;
61204;SDS011;47068;55.780;37.520;2023-01-19T01:40:49;15.57;;;4.60;;
61204;SDS011;47068;55.780;37.520;2023-01-19T01:43:15;10.23;;;4.40;;
61204;SDS011;47068;55.780;37.520;2023-01-19T01:45:41;17.30;;;5.73;;
61204;SDS011;47068;55.780;37.520;2023-01-19T01:48:09;16.03;;;7.17;;
61204;SDS011;47068;55.780;37.520;2023-01-19T01:50:37;20.33;;;5.73;;
61204;SDS011;47068;55.780;37.520;2023-01-19T01:53:25;12.50;;;4.93;;
61204;SDS011;47068;55.780;37.520;2023-01-19T01:55:51;9.40;;;4.32;;
61204;SDS011;47068;55.780;37.520;2023-01-19T01:58:16;10.67;;;3.73;;
61204;SDS011;47068;55.780;37.520;2023-01-19T02:00:41;7.93;;;3.57;;
61204;SDS011;47068;55.780;37.520;2023-01-19T02:03:26;14.03;;;6.03;;
61204;SDS011;47068;55.780;37.520;2023-01-19T02:05:55;13.27;;;3.33;;
61204;SDS011;47068;55.780;37.520;2023-01-19T02:08:41;8.03;;;3.30;;
61204;SDS011;47068;55.780;37.520;2023-01-19T02:11:26;7.67;;;3.10;;
61204;SDS011;47068;55.780;37.520;2023-01-19T02:14:11;14.10;;;3.83;;
61204;SDS011;47068;55.780;37.520;2023-01-19T02:16:36;8.13;;;2.80;;
61204;SDS011;47068;55.780;37.520;2023-01-19T02:19:02;16.33;;;4.50;;
61204;SDS011;47068;55.780;37.520;2023-01-19T02:21:33;10.48;;;3.35;;
61204;SDS011;47068;55.780;37.520;2023-01-19T02:23:59;12.90;;;3.80;;
61204;SDS011;47068;55.780;37.520;2023-01-19T02:28:52;9.27;;;3.13;;
61204;SDS011;47068;55.780;37.520;2023-01-19T02:31:21;13.77;;;5.23;;
61204;SDS011;47068;55.780;37.520;2023-01-19T02:33:47;4.80;;;2.65;;
61204;SDS011;47068;55.780;37.520;2023-01-19T02:36:13;11.13;;;3.58;;
61204;SDS011;47068;55.780;37.520;2023-01-19T02:38:39;13.93;;;3.53;;
61204;SDS011;47068;55.780;37.520;2023-01-19T02:41:06;7.90;;;3.03;;
61204;SDS011;47068;55.780;37.520;2023-01-19T02:43:32;8.63;;;2.63;;
61204;SDS011;47068;55.780;37.520;2023-01-19T02:48:23;7.57;;;3.10;;
61204;SDS011;47068;55.780;37.520;2023-01-19T02:50:50;7.07;;;3.00;;
61204;SDS011;47068;55.780;37.520;2023-01-19T02:55:42;9.67;;;3.57;;
61204;SDS011;47068;55.780;37.520;2023-01-19T03:11:00;14.23;;;4.17;;
61204;SDS011;47068;55.780;37.520;2023-01-19T03:18:21;11.27;;;3.33;;
61204;SDS011;47068;55.780;37.520;2023-01-19T03:20:49;9.43;;;4.00;;
61204;SDS011;47068;55.780;37.520;2023-01-19T03:23:15;10.87;;;3.07;;
61204;SDS011;47068;55.780;37.520;2023-01-19T03:25:41;10.70;;;2.67;;
61204;SDS011;47068;55.780;37.520;2023-01-19T03:28:07;10.18;;;3.47;;
61204;SDS011;47068;55.780;37.520;2023-01-19T03:30:34;7.20;;;2.38;;
61204;SDS011;47068;55.780;37.520;2023-01-19T03:33:03;14.63;;;4.13;;
61204;SDS011;47068;55.780;37.520;2023-01-19T03:35:32;14.33;;;3.53;;
61204;SDS011;47068;55.780;37.520;2023-01-19T03:37:59;7.90;;;2.77;;
61204;SDS011;47068;55.780;37.520;2023-01-19T03:40:26;4.90;;;2.20;;
61204;SDS011;47068;55.780;37.520;2023-01-19T03:42:53;4.30;;;2.63;;
61204;SDS011;47068;55.780;37.520;2023-01-19T03:45:19;6.32;;;3.13;;
61204;SDS011;47068;55.780;37.520;2023-01-19T03:47:45;18.25;;;3.95;;
61204;SDS011;47068;55.780;37.520;2023-01-19T03:50:13;7.70;;;3.78;;
61204;SDS011;47068;55.780;37.520;2023-01-19T03:52:41;17.83;;;4.43;;
61204;SDS011;47068;55.780;37.520;2023-01-19T03:55:06;9.02;;;3.00;;
61204;SDS011;47068;55.780;37.520;2023-01-19T03:57:33;7.63;;;3.17;;
61204;SDS011;47068;55.780;37.520;2023-01-19T03:59:59;9.23;;;2.47;;
61204;SDS011;47068;55.780;37.520;2023-01-19T04:02:24;9.77;;;2.00;;
61204;SDS011;47068;55.780;37.520;2023-01-19T04:04:49;5.83;;;2.37;;
61204;SDS011;47068;55.780;37.520;2023-01-19T04:07:14;6.77;;;2.40;;
61204;SDS011;47068;55.780;37.520;2023-01-19T04:09:40;6.00;;;2.33;;
61204;SDS011;47068;55.780;37.520;2023-01-19T04:12:05;11.00;;;3.33;;
61204;SDS011;47068;55.780;37.520;2023-01-19T04:14:31;9.00;;;3.83;;
61204;SDS011;47068;55.780;37.520;2023-01-19T04:16:56;18.73;;;3.23;;
61204;SDS011;47068;55.780;37.520;2023-01-19T04:19:21;3.93;;;1.80;;
61204;SDS011;47068;55.780;37.520;2023-01-19T04:21:49;4.87;;;2.73;;
61204;SDS011;47068;55.780;37.520;2023-01-19T04:24:15;9.00;;;3.77;;
61204;SDS011;47068;55.780;37.520;2023-01-19T04:26:40;10.47;;;3.13;;
61204;SDS011;47068;55.780;37.520;2023-01-19T04:29:05;10.80;;;3.03;;
61204;SDS011;47068;55.780;37.520;2023-01-19T04:31:30;5.93;;;2.37;;
61204;SDS011;47068;55.780;37.520;2023-01-19T04:33:56;6.03;;;2.53;;
61204;SDS011;47068;55.780;37.520;2023-01-19T04:36:21;7.47;;;3.20;;
61204;SDS011;47068;55.780;37.520;2023-01-19T04:38:46;7.57;;;3.13;;
61204;SDS011;47068;55.780;37.520;2023-01-19T04:41:12;9.25;;;2.38;;
61204;SDS011;47068;55.780;37.520;2023-01-19T04:43:38;12.02;;;3.50;;
61204;SDS011;47068;55.780;37.520;2023-01-19T04:46:03;7.93;;;2.93;;
61204;SDS011;47068;55.780;37.520;2023-01-19T04:48:28;5.73;;;2.53;;
61204;SDS011;47068;55.780;37.520;2023-01-19T04:50:54;8.93;;;3.93;;
61204;SDS011;47068;55.780;37.520;2023-01-19T04:53:19;8.90;;;3.07;;
61204;SDS011;47068;55.780;37.520;2023-01-19T04:55:44;6.47;;;3.03;;
61204;SDS011;47068;55.780;37.520;2023-01-19T04:58:10;10.35;;;3.70;;
61204;SDS011;47068;55.780;37.520;2023-01-19T05:00:36;11.17;;;4.27;;
61204;SDS011;47068;55.780;37.520;2023-01-19T05:03:01;9.10;;;2.67;;
61204;SDS011;47068;55.780;37.520;2023-01-19T05:05:26;5.07;;;2.07;;
61204;SDS011;47068;55.780;37.520;2023-01-19T05:07:52;5.80;;;3.13;;
61204;SDS011;47068;55.780;37.520;2023-01-19T05:10:17;5.93;;;2.63;;
61204;SDS011;47068;55.780;37.520;2023-01-19T05:12:42;6.27;;;2.90;;
61204;SDS011;47068;55.780;37.520;2023-01-19T05:15:08;10.10;;;4.33;;
61204;SDS011;47068;55.780;37.520;2023-01-19T05:17:34;6.30;;;2.60;;
61204;SDS011;47068;55.780;37.520;2023-01-19T05:19:59;8.23;;;3.50;;
61204;SDS011;47068;55.780;37.520;2023-01-19T05:22:24;10.53;;;4.37;;
61204;SDS011;47068;55.780;37.520;2023-01-19T05:24:49;8.77;;;3.57;;
61204;SDS011;47068;55.780;37.520;2023-01-19T05:27:15;5.73;;;2.60;;
61204;SDS011;47068;55.780;37.520;2023-01-19T05:29:40;8.10;;;3.30;;
61204;SDS011;47068;55.780;37.520;2023-01-19T05:32:05;6.80;;;2.80;;
61204;SDS011;47068;55.780;37.520;2023-01-19T05:34:31;8.93;;;2.77;;
61204;SDS011;47068;55.780;37.520;2023-01-19T05:36:56;9.70;;;3.60;;
61204;SDS011;47068;55.780;37.520;2023-01-19T05:39:21;10.77;;;3.07;;
61204;SDS011;47068;55.780;37.520;2023-01-19T05:41:46;6.03;;;2.73;;
61204;SDS011;47068;55.780;37.520;2023-01-19T05:44:12;8.57;;;2.53;;
61204;SDS011;47068;55.780;37.520;2023-01-19T05:46:38;13.60;;;3.95;;
61204;SDS011;47068;55.780;37.520;2023-01-19T05:49:03;13.25;;;3.15;;
61204;SDS011;47068;55.780;37.520;2023-01-19T05:51:32;9.40;;;4.87;;
61204;SDS011;47068;55.780;37.520;2023-01-19T05:54:02;11.53;;;4.13;;
61204;SDS011;47068;55.780;37.520;2023-01-19T05:56:27;9.17;;;3.57;;
61204;SDS011;47068;55.780;37.520;2023-01-19T05:58:53;8.52;;;3.55;;
61204;SDS011;47068;55.780;37.520;2023-01-19T06:01:18;9.48;;;2.47;;
61204;SDS011;47068;55.780;37.520;2023-01-19T06:03:44;17.80;;;3.43;;
61204;SDS011;47068;55.780;37.520;2023-01-19T06:06:09;9.20;;;5.13;;
61204;SDS011;47068;55.780;37.520;2023-01-19T06:08:34;9.63;;;3.80;;
61204;SDS011;47068;55.780;37.520;2023-01-19T06:11:00;11.20;;;2.83;;
61204;SDS011;47068;55.780;37.520;2023-01-19T06:13:25;10.13;;;3.30;;
61204;SDS011;47068;55.780;37.520;2023-01-19T06:15:57;11.10;;;4.00;;
61204;SDS011;47068;55.780;37.520;2023-01-19T06:18:22;15.27;;;6.07;;
61204;SDS011;47068;55.780;37.520;2023-01-19T06:20:48;7.00;;;2.67;;
61204;SDS011;47068;55.780;37.520;2023-01-19T06:23:13;13.32;;;3.05;;
61204;SDS011;47068;55.780;37.520;2023-01-19T06:25:38;7.13;;;3.13;;
61204;SDS011;47068;55.780;37.520;2023-01-19T06:28:04;12.10;;;3.77;;
61204;SDS011;47068;55.780;37.520;2023-01-19T06:30:29;6.60;;;3.30;;
61204;SDS011;47068;55.780;37.520;2023-01-19T06:32:54;10.37;;;5.17;;
61204;SDS011;47068;55.780;37.520;2023-01-19T06:35:20;23.17;;;3.13;;
61204;SDS011;47068;55.780;37.520;2023-01-19T06:37:45;14.30;;;3.60;;
61204;SDS011;47068;55.780;37.520;2023-01-19T06:40:10;6.90;;;3.37;;
61204;SDS011;47068;55.780;37.520;2023-01-19T06:42:36;8.63;;;4.03;;
61204;SDS011;47068;55.780;37.520;2023-01-19T06:45:01;7.90;;;4.00;;
61204;SDS011;47068;55.780;37.520;2023-01-19T06:47:26;14.33;;;4.50;;
61204;SDS011;47068;55.780;37.520;2023-01-19T06:49:52;8.53;;;2.33;;
61204;SDS011;47068;55.780;37.520;2023-01-19T06:52:17;9.63;;;2.47;;
61204;SDS011;47068;55.780;37.520;2023-01-19T06:54:44;10.50;;;2.83;;
61204;SDS011;47068;55.780;37.520;2023-01-19T06:57:10;5.70;;;2.85;;
61204;SDS011;47068;55.780;37.520;2023-01-19T06:59:36;14.85;;;4.15;;
61204;SDS011;47068;55.780;37.520;2023-01-19T07:02:01;9.70;;;3.83;;
61204;SDS011;47068;55.780;37.520;2023-01-19T07:04:26;9.97;;;3.53;;
61204;SDS011;47068;55.780;37.520;2023-01-19T07:06:52;7.47;;;4.50;;
61204;SDS011;47068;55.780;37.520;2023-01-19T07:09:17;12.43;;;3.80;;
61204;SDS011;47068;55.780;37.520;2023-01-19T07:11:44;22.43;;;5.67;;
61204;SDS011;47068;55.780;37.520;2023-01-19T07:14:09;10.35;;;3.95;;
61204;SDS011;47068;55.780;37.520;2023-01-19T07:16:35;9.05;;;3.70;;
61204;SDS011;47068;55.780;37.520;2023-01-19T07:19:01;21.10;;;4.03;;
61204;SDS011;47068;55.780;37.520;2023-01-19T07:21:26;16.77;;;3.23;;
61204;SDS011;47068;55.780;37.520;2023-01-19T07:23:52;12.27;;;4.17;;
61204;SDS011;47068;55.780;37.520;2023-01-19T07:28:45;6.10;;;2.65;;
61204;SDS011;47068;55.780;37.520;2023-01-19T07:31:10;12.30;;;4.60;;
61204;SDS011;47068;55.780;37.520;2023-01-19T07:33:36;11.10;;;3.73;;
61204;SDS011;47068;55.780;37.520;2023-01-19T07:36:01;9.33;;;2.93;;
61204;SDS011;47068;55.780;37.520;2023-01-19T07:38:26;12.57;;;4.27;;
61204;SDS011;47068;55.780;37.520;2023-01-19T07:40:59;17.00;;;4.05;;
61204;SDS011;47068;55.780;37.520;2023-01-19T07:43:24;7.73;;;3.53;;
61204;SDS011;47068;55.780;37.520;2023-01-19T07:45:49;12.97;;;5.00;;
61204;SDS011;47068;55.780;37.520;2023-01-19T07:48:16;6.93;;;3.53;;
61204;SDS011;47068;55.780;37.520;2023-01-19T07:50:41;15.55;;;3.90;;
61204;SDS011;47068;55.780;37.520;2023-01-19T07:53:07;17.90;;;3.67;;
61204;SDS011;47068;55.780;37.520;2023-01-19T07:55:33;10.20;;;3.75;;
61204;SDS011;47068;55.780;37.520;2023-01-19T07:58:01;11.00;;;4.73;;
61204;SDS011;47068;55.780;37.520;2023-01-19T08:00:30;8.73;;;3.83;;
61204;SDS011;47068;55.780;37.520;2023-01-19T08:05:22;4.80;;;2.50;;
61204;SDS011;47068;55.780;37.520;2023-01-19T08:07:49;9.73;;;3.97;;
61204;SDS011;47068;55.780;37.520;2023-01-19T08:10:15;8.50;;;2.83;;
61204;SDS011;47068;55.780;37.520;2023-01-19T08:12:40;7.38;;;3.28;;
61204;SDS011;47068;55.780;37.520;2023-01-19T08:15:07;5.03;;;2.75;;
61204;SDS011;47068;55.780;37.520;2023-01-19T08:17:32;6.72;;;3.00;;
61204;SDS011;47068;55.780;37.520;2023-01-19T08:19:58;12.33;;;4.70;;
61204;SDS011;47068;55.780;37.520;2023-01-19T08:22:23;8.87;;;3.80;;
61204;SDS011;47068;55.780;37.520;2023-01-19T08:24:48;9.10;;;3.33;;
61204;SDS011;47068;55.780;37.520;2023-01-19T08:27:14;9.50;;;3.77;;
61204;SDS011;47068;55.780;37.520;2023-01-19T08:29:39;14.40;;;3.77;;
61204;SDS011;47068;55.780;37.520;2023-01-19T08:32:07;11.03;;;4.33;;
61204;SDS011;47068;55.780;37.520;2023-01-19T08:34:34;9.23;;;3.60;;
61204;SDS011;47068;55.780;37.520;2023-01-19T08:36:59;9.60;;;3.50;;
61204;SDS011;47068;55.780;37.520;2023-01-19T08:39:25;9.43;;;3.63;;
61204;SDS011;47068;55.780;37.520;2023-01-19T08:41:51;14.68;;;4.00;;
61204;SDS011;47068;55.780;37.520;2023-01-19T08:44:17;14.82;;;4.93;;
61204;SDS011;47068;55.780;37.520;2023-01-19T08:46:42;11.10;;;4.20;;
61204;SDS011;47068;55.780;37.520;2023-01-19T08:49:08;9.90;;;3.78;;
61204;SDS011;47068;55.780;37.520;2023-01-19T08:51:33;8.90;;;4.37;;
61204;SDS011;47068;55.780;37.520;2023-01-19T08:53:59;9.45;;;3.53;;
61204;SDS011;47068;55.780;37.520;2023-01-19T08:56:24;8.10;;;3.90;;
61204;SDS011;47068;55.780;37.520;2023-01-19T08:58:49;9.17;;;4.13;;
61204;SDS011;47068;55.780;37.520;2023-01-19T09:01:15;7.87;;;3.63;;
61204;SDS011;47068;55.780;37.520;2023-01-19T09:03:44;10.97;;;3.60;;
61204;SDS011;47068;55.780;37.520;2023-01-19T09:06:10;12.33;;;4.13;;
61204;SDS011;47068;55.780;37.520;2023-01-19T09:08:37;14.03;;;5.00;;
61204;SDS011;47068;55.780;37.520;2023-01-19T09:11:02;12.80;;;4.53;;
61204;SDS011;47068;55.780;37.520;2023-01-19T09:13:29;11.13;;;3.93;;
61204;SDS011;47068;55.780;37.520;2023-01-19T09:15:54;13.57;;;4.60;;
61204;SDS011;47068;55.780;37.520;2023-01-19T09:18:20;9.00;;;3.53;;
61204;SDS011;47068;55.780;37.520;2023-01-19T09:23:12;15.27;;;4.60;;
61204;SDS011;47068;55.780;37.520;2023-01-19T09:25:38;9.55;;;3.45;;
61204;SDS011;47068;55.780;37.520;2023-01-19T09:28:07;14.85;;;4.53;;
61204;SDS011;47068;55.780;37.520;2023-01-19T09:30:33;13.70;;;3.73;;
61204;SDS011;47068;55.780;37.520;2023-01-19T09:33:05;8.80;;;3.97;;
61204;SDS011;47068;55.780;37.520;2023-01-19T09:35:34;12.53;;;4.20;;
61204;SDS011;47068;55.780;37.520;2023-01-19T09:38:00;11.90;;;4.47;;
61204;SDS011;47068;55.780;37.520;2023-01-19T09:40:26;11.03;;;3.97;;
61204;SDS011;47068;55.780;37.520;2023-01-19T09:42:53;10.77;;;4.05;;
61204;SDS011;47068;55.780;37.520;2023-01-19T09:48:01;8.33;;;3.63;;
61204;SDS011;47068;55.780;37.520;2023-01-19T09:50:30;17.03;;;4.47;;
61204;SDS011;47068;55.780;37.520;2023-01-19T09:53:00;9.70;;;3.80;;
61204;SDS011;47068;55.780;37.520;2023-01-19T09:55:29;10.07;;;4.03;;
61204;SDS011;47068;55.780;37.520;2023-01-19T09:57:54;19.33;;;5.53;;
61204;SDS011;47068;55.780;37.520;2023-01-19T10:00:19;13.43;;;4.10;;
61204;SDS011;47068;55.780;37.520;2023-01-19T10:02:52;10.00;;;4.90;;
61204;SDS011;47068;55.780;37.520;2023-01-19T10:05:28;17.00;;;4.20;;
61204;SDS011;47068;55.780;37.520;2023-01-19T10:10:28;17.10;;;4.47;;
61204;SDS011;47068;55.780;37.520;2023-01-19T10:18:27;10.10;;;4.23;;
61204;SDS011;47068;55.780;37.520;2023-01-19T10:25:58;17.30;;;3.70;;
61204;SDS011;47068;55.780;37.520;2023-01-19T10:28:24;15.23;;;5.23;;
61204;SDS011;47068;55.780;37.520;2023-01-19T10:30:51;8.38;;;3.80;;
61204;SDS011;47068;55.780;37.520;2023-01-19T10:33:18;15.73;;;5.40;;
61204;SDS011;47068;55.780;37.520;2023-01-19T10:35:43;15.80;;;5.40;;
61204;SDS011;47068;55.780;37.520;2023-01-19T10:38:11;13.27;;;5.03;;
61204;SDS011;47068;55.780;37.520;2023-01-19T10:40:41;13.33;;;4.00;;
61204;SDS011;47068;55.780;37.520;2023-01-19T10:45:51;8.83;;;3.80;;
61204;SDS011;47068;55.780;37.520;2023-01-19T10:48:16;13.60;;;5.43;;
61204;SDS011;47068;55.780;37.520;2023-01-19T10:50:41;16.33;;;4.57;;
61204;SDS011;47068;55.780;37.520;2023-01-19T10:53:16;13.93;;;4.87;;
61204;SDS011;47068;55.780;37.520;2023-01-19T10:55:43;8.40;;;4.47;;
61204;SDS011;47068;55.780;37.520;2023-01-19T10:58:25;17.00;;;5.07;;
61204;SDS011;47068;55.780;37.520;2023-01-19T11:00:51;16.07;;;5.13;;
61204;SDS011;47068;55.780;37.520;2023-01-19T11:03:27;18.37;;;6.90;;
61204;SDS011;47068;55.780;37.520;2023-01-19T11:05:52;10.43;;;4.33;;
61204;SDS011;47068;55.780;37.520;2023-01-19T11:08:22;10.67;;;4.93;;
61204;SDS011;47068;55.780;37.520;2023-01-19T11:13:43;17.03;;;4.40;;
61204;SDS011;47068;55.780;37.520;2023-01-19T11:18:35;18.70;;;7.30;;
61204;SDS011;47068;55.780;37.520;2023-01-19T11:25:51;11.50;;;5.40;;
61204;SDS011;47068;55.780;37.520;2023-01-19T11:28:26;19.73;;;5.97;;
61204;SDS011;47068;55.780;37.520;2023-01-19T11:30:53;16.97;;;6.63;;
61204;SDS011;47068;55.780;37.520;2023-01-19T11:33:27;13.93;;;3.55;;
61204;SDS011;47068;55.780;37.520;2023-01-19T11:36:03;17.30;;;5.87;;
61204;SDS011;47068;55.780;37.520;2023-01-19T11:38:29;14.10;;;5.87;;
61204;SDS011;47068;55.780;37.520;2023-01-19T11:40:55;18.27;;;4.40;;
61204;SDS011;47068;55.780;37.520;2023-01-19T11:43:22;12.83;;;4.67;;
61204;SDS011;47068;55.780;37.520;2023-01-19T11:48:35;16.47;;;4.83;;
61204;SDS011;47068;55.780;37.520;2023-01-19T11:50:58;12.10;;;5.03;;
61204;SDS011;47068;55.780;37.520;2023-01-19T11:53:25;12.20;;;4.27;;
61204;SDS011;47068;55.780;37.520;2023-01-19T11:55:55;8.57;;;4.00;;
61204;SDS011;47068;55.780;37.520;2023-01-19T11:58:22;19.73;;;4.50;;
61204;SDS011;47068;55.780;37.520;2023-01-19T12:01:49;10.23;;;4.70;;
61204;SDS011;47068;55.780;37.520;2023-01-19T12:06:17;15.00;;;6.13;;
61204;SDS011;47068;55.780;37.520;2023-01-19T12:08:46;16.23;;;4.57;;
61204;SDS011;47068;55.780;37.520;2023-01-19T12:11:14;15.80;;;5.43;;
61204;SDS011;47068;55.780;37.520;2023-01-19T12:13:41;23.20;;;6.87;;
61204;SDS011;47068;55.780;37.520;2023-01-19T12:16:21;12.18;;;5.70;;
61204;SDS011;47068;55.780;37.520;2023-01-19T12:18:47;14.50;;;5.37;;
61204;SDS011;47068;55.780;37.520;2023-01-19T12:21:15;11.57;;;3.93;;
61204;SDS011;47068;55.780;37.520;2023-01-19T12:29:01;15.83;;;5.90;;
61204;SDS011;47068;55.780;37.520;2023-01-19T12:31:27;10.73;;;4.97;;
61204;SDS011;47068;55.780;37.520;2023-01-19T12:33:53;17.60;;;6.10;;
61204;SDS011;47068;55.780;37.520;2023-01-19T12:39:01;15.90;;;4.87;;
61204;SDS011;47068;55.780;37.520;2023-01-19T12:54:34;13.20;;;5.77;;
61204;SDS011;47068;55.780;37.520;2023-01-19T12:57:05;10.45;;;4.93;;
61204;SDS011;47068;55.780;37.520;2023-01-19T12:59:33;14.83;;;5.30;;
61204;SDS011;47068;55.780;37.520;2023-01-19T13:05:03;16.90;;;4.77;;
61204;SDS011;47068;55.780;37.520;2023-01-19T13:07:28;16.27;;;6.07;;
61204;SDS011;47068;55.780;37.520;2023-01-19T13:09:53;13.67;;;6.27;;
61204;SDS011;47068;55.780;37.520;2023-01-19T13:12:20;10.47;;;5.27;;
61204;SDS011;47068;55.780;37.520;2023-01-19T13:14:45;17.03;;;6.17;;
61204;SDS011;47068;55.780;37.520;2023-01-19T13:17:22;11.57;;;5.43;;
61204;SDS011;47068;55.780;37.520;2023-01-19T13:19:51;14.93;;;5.90;;
61204;SDS011;47068;55.780;37.520;2023-01-19T13:25:11;17.13;;;6.47;;
61204;SDS011;47068;55.780;37.520;2023-01-19T13:27:37;17.87;;;6.97;;
61204;SDS011;47068;55.780;37.520;2023-01-19T13:30:08;19.08;;;5.53;;
61204;SDS011;47068;55.780;37.520;2023-01-19T13:32:34;18.00;;;6.27;;
61204;SDS011;47068;55.780;37.520;2023-01-19T13:35:00;21.38;;;6.28;;
61204;SDS011;47068;55.780;37.520;2023-01-19T13:37:34;15.60;;;7.10;;
61204;SDS011;47068;55.780;37.520;2023-01-19T13:39:59;15.47;;;6.27;;
61204;SDS011;47068;55.780;37.520;2023-01-19T13:42:35;21.90;;;8.43;;
61204;SDS011;47068;55.780;37.520;2023-01-19T13:45:05;24.20;;;7.17;;
61204;SDS011;47068;55.780;37.520;2023-01-19T13:47:43;20.90;;;8.40;;
61204;SDS011;47068;55.780;37.520;2023-01-19T13:50:31;17.17;;;7.10;;
61204;SDS011;47068;55.780;37.520;2023-01-19T13:52:55;23.57;;;7.23;;
61204;SDS011;47068;55.780;37.520;2023-01-19T13:55:23;20.43;;;6.93;;
61204;SDS011;47068;55.780;37.520;2023-01-19T13:57:48;14.35;;;6.30;;
61204;SDS011;47068;55.780;37.520;2023-01-19T14:00:18;13.70;;;6.35;;
61204;SDS011;47068;55.780;37.520;2023-01-19T14:07:43;21.93;;;5.63;;
61204;SDS011;47068;55.780;37.520;2023-01-19T14:10:11;22.03;;;8.67;;
61204;SDS011;47068;55.780;37.520;2023-01-19T14:12:37;11.23;;;5.13;;
61204;SDS011;47068;55.780;37.520;2023-01-19T14:15:03;22.15;;;6.72;;
61204;SDS011;47068;55.780;37.520;2023-01-19T14:17:30;14.20;;;5.90;;
61204;SDS011;47068;55.780;37.520;2023-01-19T14:19:57;20.77;;;6.18;;
61204;SDS011;47068;55.780;37.520;2023-01-19T14:22:42;18.60;;;7.28;;
61204;SDS011;47068;55.780;37.520;2023-01-19T14:30:53;16.47;;;5.97;;
61204;SDS011;47068;55.780;37.520;2023-01-19T14:36:35;12.33;;;6.57;;
61204;SDS011;47068;55.780;37.520;2023-01-19T14:38:55;22.20;;;7.40;;
61204;SDS011;47068;55.780;37.520;2023-01-19T14:41:38;17.97;;;6.90;;
61204;SDS011;47068;55.780;37.520;2023-01-19T14:44:10;13.30;;;4.67;;
61204;SDS011;47068;55.780;37.520;2023-01-19T14:46:43;18.63;;;6.50;;
61204;SDS011;47068;55.780;37.520;2023-01-19T14:49:14;24.43;;;5.67;;
61204;SDS011;47068;55.780;37.520;2023-01-19T14:51:42;14.83;;;5.13;;
61204;SDS011;47068;55.780;37.520;2023-01-19T14:54:14;12.13;;;4.63;;
61204;SDS011;47068;55.780;37.520;2023-01-19T14:56:40;20.83;;;5.63;;
61204;SDS011;47068;55.780;37.520;2023-01-19T14:59:07;14.00;;;5.37;;
61204;SDS011;47068;55.780;37.520;2023-01-19T15:01:33;16.63;;;6.00;;
61204;SDS011;47068;55.780;37.520;2023-01-19T15:03:58;18.27;;;6.37;;
61204;SDS011;47068;55.780;37.520;2023-01-19T15:06:24;14.27;;;4.93;;
61204;SDS011;47068;55.780;37.520;2023-01-19T15:08:50;16.17;;;5.45;;
61204;SDS011;47068;55.780;37.520;2023-01-19T15:13:45;11.70;;;4.13;;
61204;SDS011;47068;55.780;37.520;2023-01-19T15:16:11;13.63;;;3.90;;
61204;SDS011;47068;55.780;37.520;2023-01-19T15:18:36;14.27;;;5.30;;
61204;SDS011;47068;55.780;37.520;2023-01-19T15:23:28;15.37;;;7.30;;
61204;SDS011;47068;55.780;37.520;2023-01-19T15:25:57;14.70;;;5.22;;
61204;SDS011;47068;55.780;37.520;2023-01-19T15:28:25;10.80;;;4.50;;
61204;SDS011;47068;55.780;37.520;2023-01-19T15:30:50;12.00;;;5.00;;
61204;SDS011;47068;55.780;37.520;2023-01-19T15:33:18;15.10;;;5.07;;
61204;SDS011;47068;55.780;37.520;2023-01-19T15:35:44;12.40;;;4.70;;
61204;SDS011;47068;55.780;37.520;2023-01-19T15:38:09;12.17;;;4.67;;
61204;SDS011;47068;55.780;37.520;2023-01-19T15:40:34;14.23;;;4.60;;
61204;SDS011;47068;55.780;37.520;2023-01-19T15:43:00;13.57;;;4.57;;
61204;SDS011;47068;55.780;37.520;2023-01-19T15:47:57;15.40;;;5.83;;
61204;SDS011;47068;55.780;37.520;2023-01-19T15:50:23;13.05;;;5.00;;
61204;SDS011;47068;55.780;37.520;2023-01-19T15:52:49;8.30;;;4.00;;
61204;SDS011;47068;55.780;37.520;2023-01-19T15:55:14;29.83;;;10.30;;
61204;SDS011;47068;55.780;37.520;2023-01-19T15:57:40;9.83;;;4.90;;
61204;SDS011;47068;55.780;37.520;2023-01-19T16:00:05;15.43;;;6.70;;
61204;SDS011;47068;55.780;37.520;2023-01-19T16:02:31;30.75;;;9.95;;
61204;SDS011;47068;55.780;37.520;2023-01-19T16:04:56;16.13;;;6.17;;
61204;SDS011;47068;55.780;37.520;2023-01-19T16:07:25;20.53;;;6.87;;
61204;SDS011;47068;55.780;37.520;2023-01-19T16:09:50;19.50;;;5.47;;
61204;SDS011;47068;55.780;37.520;2023-01-19T16:12:15;9.20;;;4.37;;
61204;SDS011;47068;55.780;37.520;2023-01-19T16:14:40;16.20;;;5.80;;
61204;SDS011;47068;55.780;37.520;2023-01-19T16:17:06;14.13;;;6.37;;
61204;SDS011;47068;55.780;37.520;2023-01-19T16:19:31;15.20;;;5.20;;
61204;SDS011;47068;55.780;37.520;2023-01-19T16:21:56;14.60;;;5.43;;